createdAt,value
2022-11-09T00:03:58.162Z,11.70
2022-11-09T00:08:15.360Z,12.10
2022-11-09T00:12:32.561Z,11.90
2022-11-09T00:16:49.819Z,11.90
2022-11-09T00:21:12.115Z,11.50
2022-11-09T00:25:29.346Z,10.90
2022-11-09T00:29:46.549Z,10.40
2022-11-09T00:34:03.843Z,10.10
2022-11-09T00:38:21.534Z,9.80
2022-11-09T00:42:39.006Z,9.70
2022-11-09T00:46:56.276Z,9.90
2022-11-09T00:51:13.815Z,10.10
2022-11-09T00:55:31.024Z,10.70
2022-11-09T00:59:48.294Z,10.70
2022-11-09T01:04:05.516Z,10.70
2022-11-09T01:08:22.721Z,10.80
2022-11-09T01:12:39.988Z,10.80
2022-11-09T01:16:57.270Z,10.80
2022-11-09T01:21:15.507Z,10.90
2022-11-09T01:25:33.016Z,10.90
2022-11-09T01:29:50.222Z,11.00
2022-11-09T01:34:07.417Z,11.00
2022-11-09T01:38:24.612Z,11.10
2022-11-09T01:42:41.884Z,11.20
2022-11-09T01:47:05.844Z,11.10
2022-11-09T01:51:35.353Z,11.20
2022-11-09T01:55:56.407Z,11.20
2022-11-09T02:00:19.644Z,11.20
2022-11-09T02:04:41.880Z,11.30
2022-11-09T02:09:26.572Z,11.40
2022-11-09T02:13:47.906Z,11.40
2022-11-09T02:18:05.810Z,11.40
2022-11-09T02:22:23.074Z,11.50
2022-11-09T02:26:49.924Z,11.50
2022-11-09T02:31:10.664Z,11.40
2022-11-09T02:35:27.852Z,11.50
2022-11-09T02:39:45.062Z,11.50
2022-11-09T02:44:02.399Z,11.50
2022-11-09T02:48:19.600Z,11.50
2022-11-09T02:52:36.792Z,11.40
2022-11-09T02:56:54.138Z,11.30
2022-11-09T03:01:11.390Z,11.10
2022-11-09T03:05:28.752Z,11.10
2022-11-09T03:09:46.478Z,11.20
2022-11-09T03:14:04.005Z,11.20
2022-11-09T03:18:21.283Z,10.80
2022-11-09T03:22:38.747Z,10.20
2022-11-09T03:26:55.915Z,9.80
2022-11-09T03:31:13.741Z,9.50
2022-11-09T03:35:30.950Z,9.40
2022-11-09T03:39:48.146Z,9.40
2022-11-09T03:44:05.451Z,9.40
2022-11-09T03:48:22.775Z,9.40
2022-11-09T03:52:40.266Z,9.40
2022-11-09T03:56:57.458Z,9.40
2022-11-09T04:01:15.129Z,9.60
2022-11-09T04:05:32.416Z,9.70
2022-11-09T04:09:49.583Z,9.90
2022-11-09T04:14:06.812Z,10.20
2022-11-09T04:18:23.993Z,10.30
2022-11-09T04:22:41.343Z,10.70
2022-11-09T04:26:58.576Z,11.00
2022-11-09T04:31:15.898Z,11.20
2022-11-09T04:35:34.005Z,11.40
2022-11-09T04:39:51.196Z,11.60
2022-11-09T04:44:08.515Z,11.70
2022-11-09T04:48:25.803Z,11.70
2022-11-09T04:52:43.063Z,11.70
2022-11-09T04:57:00.261Z,11.70
2022-11-09T05:01:17.753Z,11.70
2022-11-09T05:05:36.656Z,11.70
2022-11-09T05:09:53.749Z,11.70
2022-11-09T05:14:10.867Z,11.80
2022-11-09T05:18:28.064Z,11.80
2022-11-09T05:23:04.147Z,11.80
2022-11-09T05:27:21.406Z,11.90
2022-11-09T05:31:39.962Z,11.90
2022-11-09T05:35:57.705Z,11.80
2022-11-09T05:40:15.989Z,11.80
2022-11-09T05:44:33.218Z,11.80
2022-11-09T05:48:50.482Z,11.90
2022-11-09T05:53:08.333Z,12.00
2022-11-09T05:57:25.573Z,11.90
2022-11-09T06:01:42.992Z,11.90
2022-11-09T06:06:07.765Z,12.00
2022-11-09T06:10:25.786Z,12.00
2022-11-09T06:14:42.980Z,12.10
2022-11-09T06:19:01.218Z,12.00
2022-11-09T06:23:18.880Z,12.10
2022-11-09T06:27:36.234Z,12.10
2022-11-09T06:31:53.456Z,12.20
2022-11-09T06:36:11.487Z,12.20
2022-11-09T06:40:29.048Z,12.20
2022-11-09T06:44:46.449Z,12.20
2022-11-09T06:49:03.684Z,12.20
2022-11-09T06:53:21.205Z,12.30
2022-11-09T06:57:38.696Z,12.40
2022-11-09T07:02:01.027Z,12.50
2022-11-09T07:06:18.737Z,12.50
2022-11-09T07:10:36.062Z,12.50
2022-11-09T07:14:53.284Z,12.50
2022-11-09T07:19:10.489Z,12.50
2022-11-09T07:23:27.682Z,12.40
2022-11-09T07:27:44.979Z,12.20
2022-11-09T07:32:02.174Z,12.00
2022-11-09T07:36:21.591Z,12.00
2022-11-09T07:40:39.527Z,12.00
2022-11-09T07:44:56.725Z,11.90
2022-11-09T07:49:15.295Z,11.80
2022-11-09T07:53:33.093Z,11.40
2022-11-09T07:57:59.116Z,11.30
2022-11-09T08:02:16.484Z,11.00
2022-11-09T08:06:33.962Z,10.90
2022-11-09T08:10:51.479Z,10.80
2022-11-09T08:15:09.229Z,10.90
2022-11-09T08:19:26.448Z,11.10
2022-11-09T08:23:43.695Z,11.00
2022-11-09T08:28:01.742Z,10.90
2022-11-09T08:32:19.065Z,11.00
2022-11-09T08:36:36.384Z,11.00
2022-11-09T08:41:00.285Z,11.10
2022-11-09T08:45:18.989Z,11.00
2022-11-09T08:49:36.305Z,11.10
2022-11-09T08:53:53.578Z,11.20
2022-11-09T08:58:10.948Z,11.30
2022-11-09T09:02:28.232Z,11.30
2022-11-09T09:06:45.488Z,11.30
2022-11-09T09:11:04.728Z,11.40
2022-11-09T09:15:22.208Z,11.50
2022-11-09T09:19:39.435Z,11.80
2022-11-09T09:23:56.631Z,12.00
2022-11-09T09:28:13.863Z,12.20
2022-11-09T09:32:31.094Z,12.30
2022-11-09T09:36:48.645Z,12.40
2022-11-09T09:41:07.816Z,12.30
2022-11-09T09:45:30.032Z,12.30
2022-11-09T09:49:58.079Z,12.50
2022-11-09T09:54:21.188Z,12.50
2022-11-09T09:58:45.631Z,12.50
2022-11-09T10:03:03.331Z,12.50
2022-11-09T10:07:29.300Z,12.60
2022-11-09T10:12:01.133Z,12.90
2022-11-09T10:16:26.420Z,13.10
2022-11-09T10:21:09.702Z,13.40
2022-11-09T10:26:03.193Z,13.70
2022-11-09T10:30:19.875Z,13.30
2022-11-09T10:34:59.500Z,13.40
2022-11-09T10:39:17.331Z,14.10
2022-11-09T10:43:34.451Z,14.70
2022-11-09T10:47:52.942Z,15.00
2022-11-09T10:52:44.293Z,14.90
2022-11-09T10:57:14.495Z,14.40
2022-11-09T11:01:38.273Z,14.40
2022-11-09T11:06:19.399Z,14.20
2022-11-09T11:10:37.805Z,14.10
2022-11-09T11:14:55.434Z,14.10
2022-11-09T11:19:34.936Z,14.20
2022-11-09T11:24:18.642Z,14.40
2022-11-09T11:28:46.649Z,14.40
2022-11-09T11:33:18.855Z,14.50
2022-11-09T11:38:02.305Z,14.70
2022-11-09T11:42:55.370Z,15.40
2022-11-09T11:47:28.359Z,15.40
2022-11-09T11:52:13.038Z,15.20
2022-11-09T11:56:38.473Z,14.90
2022-11-09T12:01:17.037Z,14.90
2022-11-09T12:05:57.480Z,14.80
2022-11-09T12:10:31.270Z,14.50
2022-11-09T12:15:04.838Z,14.40
2022-11-09T12:19:35.860Z,14.30
2022-11-09T12:24:21.035Z,14.30
2022-11-09T12:29:16.968Z,14.60
2022-11-09T12:34:10.104Z,15.00
2022-11-09T12:38:37.630Z,14.80
2022-11-09T12:43:12.150Z,14.70
2022-11-09T12:47:35.680Z,14.60
2022-11-09T12:51:57.946Z,14.70
2022-11-09T12:56:23.837Z,14.70
2022-11-09T13:00:44.292Z,14.70
2022-11-09T13:05:31.988Z,14.80
2022-11-09T13:09:57.746Z,14.90
2022-11-09T13:14:26.876Z,14.90
2022-11-09T13:18:45.576Z,14.80
2022-11-09T13:23:04.483Z,14.70
2022-11-09T13:27:36.620Z,14.60
2022-11-09T13:32:20.269Z,14.60
2022-11-09T13:36:37.480Z,14.40
2022-11-09T13:41:02.647Z,14.40
2022-11-09T13:45:55.437Z,14.40
2022-11-09T13:50:20.016Z,14.30
2022-11-09T13:54:42.346Z,14.30
2022-11-09T13:59:02.744Z,14.50
2022-11-09T14:03:28.437Z,14.50
2022-11-09T14:07:45.682Z,14.50
2022-11-09T14:12:27.793Z,14.60
2022-11-09T14:16:54.963Z,14.70
2022-11-09T14:21:40.778Z,14.70
2022-11-09T14:25:58.012Z,14.70
2022-11-09T14:30:24.029Z,14.50
2022-11-09T14:34:41.290Z,14.30
2022-11-09T14:39:05.083Z,14.20
2022-11-09T14:43:35.830Z,14.20
2022-11-09T14:47:58.896Z,14.10
2022-11-09T14:52:27.241Z,14.00
2022-11-09T14:56:45.645Z,13.90
2022-11-09T15:01:19.920Z,13.80
2022-11-09T15:05:40.174Z,13.90
2022-11-09T15:10:03.062Z,13.80
2022-11-09T15:14:31.281Z,13.80
2022-11-09T15:18:49.023Z,13.70
2022-11-09T15:23:20.984Z,13.70
2022-11-09T15:27:38.425Z,13.50
2022-11-09T15:32:10.914Z,13.30
2022-11-09T15:36:32.571Z,13.30
2022-11-09T15:40:49.915Z,13.10
2022-11-09T15:45:07.782Z,13.00
2022-11-09T15:49:27.350Z,13.00
2022-11-09T15:53:44.706Z,13.00
2022-11-09T15:58:01.992Z,13.00
2022-11-09T16:02:19.312Z,12.90
2022-11-09T16:06:36.539Z,12.90
2022-11-09T16:10:53.847Z,12.80
2022-11-09T16:15:11.180Z,12.70
2022-11-09T16:19:28.466Z,12.70
2022-11-09T16:23:45.678Z,12.70
2022-11-09T16:28:03.095Z,12.70
2022-11-09T16:32:20.278Z,12.80
2022-11-09T16:36:43.005Z,12.80
2022-11-09T16:41:05.785Z,12.90
2022-11-09T16:45:25.899Z,12.90
2022-11-09T16:49:45.217Z,12.90
2022-11-09T16:54:02.512Z,12.80
2022-11-09T16:58:20.257Z,12.90
2022-11-09T17:02:37.742Z,12.90
2022-11-09T17:06:55.026Z,12.80
2022-11-09T17:11:17.609Z,12.80
2022-11-09T17:15:38.898Z,12.70
2022-11-09T17:19:56.110Z,12.70
2022-11-09T17:24:13.372Z,12.80
2022-11-09T17:28:31.724Z,12.70
2022-11-09T17:32:49.092Z,12.70
2022-11-09T17:37:06.279Z,12.70
2022-11-09T17:41:23.840Z,12.70
2022-11-09T17:45:41.178Z,12.70
2022-11-09T17:49:58.408Z,12.80
2022-11-09T17:54:15.773Z,12.80
2022-11-09T17:58:32.998Z,12.80
2022-11-09T18:02:53.885Z,12.80
2022-11-09T18:07:11.213Z,12.80
2022-11-09T18:11:30.224Z,12.80
2022-11-09T18:15:47.458Z,12.80
2022-11-09T18:20:05.283Z,12.80
2022-11-09T18:24:22.519Z,12.80
2022-11-09T18:28:40.084Z,12.80
2022-11-09T18:32:57.339Z,12.80
2022-11-09T18:37:14.743Z,12.80
2022-11-09T18:41:31.946Z,12.90
2022-11-09T18:46:05.277Z,12.90
2022-11-09T18:50:22.639Z,12.90
2022-11-09T18:54:39.949Z,12.80
2022-11-09T18:58:57.984Z,12.80
2022-11-09T19:03:16.026Z,12.80
2022-11-09T19:07:33.295Z,12.80
2022-11-09T19:11:50.674Z,12.80
2022-11-09T19:16:11.457Z,12.80
2022-11-09T19:20:28.934Z,12.60
2022-11-09T19:24:46.416Z,12.70
2022-11-09T19:29:06.049Z,12.70
2022-11-09T19:33:24.564Z,12.70
2022-11-09T19:37:41.758Z,12.80
2022-11-09T19:41:59.012Z,12.70
2022-11-09T19:46:16.625Z,12.50
2022-11-09T19:50:33.937Z,12.60
2022-11-09T19:54:51.232Z,12.50
2022-11-09T19:59:13.548Z,12.40
2022-11-09T20:03:30.915Z,12.40
2022-11-09T20:07:48.087Z,12.50
2022-11-09T20:12:24.155Z,12.40
2022-11-09T20:16:42.557Z,12.40
2022-11-09T20:20:59.750Z,12.50
2022-11-09T20:25:17.013Z,12.70
2022-11-09T20:29:34.213Z,12.70
2022-11-09T20:33:51.911Z,12.80
2022-11-09T20:38:09.100Z,12.70
2022-11-09T20:42:26.282Z,12.70
2022-11-09T20:46:43.589Z,12.50
2022-11-09T20:51:05.959Z,12.40
2022-11-09T20:55:24.549Z,12.30
2022-11-09T20:59:41.756Z,12.20
2022-11-09T21:03:58.970Z,11.90
2022-11-09T21:08:16.135Z,11.80
2022-11-09T21:12:33.348Z,11.70
2022-11-09T21:16:50.694Z,11.70
2022-11-09T21:21:15.902Z,11.60
2022-11-09T21:25:52.053Z,11.50
2022-11-09T21:30:09.740Z,11.50
2022-11-09T21:34:29.507Z,11.40
2022-11-09T21:38:50.028Z,11.40
2022-11-09T21:43:07.233Z,11.30
2022-11-09T21:47:25.010Z,11.30
2022-11-09T21:51:42.317Z,11.20
2022-11-09T21:55:59.997Z,11.10
2022-11-09T22:00:17.847Z,11.10
2022-11-09T22:04:35.092Z,11.00
2022-11-09T22:08:52.436Z,11.00
2022-11-09T22:13:32.507Z,11.00
2022-11-09T22:17:53.442Z,11.00
2022-11-09T22:22:10.767Z,10.90
2022-11-09T22:26:30.246Z,11.00
2022-11-09T22:30:47.433Z,10.90
2022-11-09T22:35:04.840Z,10.90
2022-11-09T22:39:22.790Z,10.90
2022-11-09T22:43:42.296Z,11.00
2022-11-09T22:47:59.540Z,11.00
2022-11-09T22:52:18.250Z,11.00
2022-11-09T22:56:35.431Z,11.00
2022-11-09T23:00:53.445Z,11.00
2022-11-09T23:05:10.723Z,10.90
2022-11-09T23:09:27.964Z,10.80
2022-11-09T23:13:52.187Z,10.70
2022-11-09T23:18:28.154Z,10.70
2022-11-09T23:22:45.358Z,10.60
2022-11-09T23:27:02.552Z,10.60
2022-11-09T23:31:24.299Z,10.60
2022-11-09T23:35:41.561Z,10.60
2022-11-09T23:39:58.769Z,10.50
2022-11-09T23:44:16.036Z,10.50
2022-11-09T23:48:34.010Z,10.60
2022-11-09T23:52:51.214Z,10.70
2022-11-09T23:57:08.748Z,10.70
